sensor_id;sensor_type;location;lat;lon;timestamp;temperature;humidity
7234;DHT22;3658;47.992;10.158;2023-06-14T00:01:14;22.00;44.50
7234;DHT22;3658;47.992;10.158;2023-06-14T00:03:42;22.00;44.50
7234;DHT22;3658;47.992;10.158;2023-06-14T00:06:09;22.00;44.50
7234;DHT22;3658;47.992;10.158;2023-06-14T00:08:35;22.00;44.50
7234;DHT22;3658;47.992;10.158;2023-06-14T00:11:02;22.10;44.60
7234;DHT22;3658;47.992;10.158;2023-06-14T00:13:29;22.10;44.70
7234;DHT22;3658;47.992;10.158;2023-06-14T00:15:56;22.10;44.70
7234;DHT22;3658;47.992;10.158;2023-06-14T00:18:23;22.10;44.70
7234;DHT22;3658;47.992;10.158;2023-06-14T00:20:53;22.00;44.70
7234;DHT22;3658;47.992;10.158;2023-06-14T00:23:20;22.00;44.70
7234;DHT22;3658;47.992;10.158;2023-06-14T00:25:47;22.00;44.60
7234;DHT22;3658;47.992;10.158;2023-06-14T00:28:14;22.00;44.70
7234;DHT22;3658;47.992;10.158;2023-06-14T00:30:40;22.10;44.80
7234;DHT22;3658;47.992;10.158;2023-06-14T00:33:09;22.10;44.80
7234;DHT22;3658;47.992;10.158;2023-06-14T00:35:36;22.10;44.80
7234;DHT22;3658;47.992;10.158;2023-06-14T00:38:04;22.00;44.80
7234;DHT22;3658;47.992;10.158;2023-06-14T00:40:31;22.00;44.80
7234;DHT22;3658;47.992;10.158;2023-06-14T00:42:58;22.00;44.80
7234;DHT22;3658;47.992;10.158;2023-06-14T00:45:24;22.00;44.80
7234;DHT22;3658;47.992;10.158;2023-06-14T00:47:51;22.00;44.80
7234;DHT22;3658;47.992;10.158;2023-06-14T00:50:21;22.00;44.80
7234;DHT22;3658;47.992;10.158;2023-06-14T00:52:48;22.00;44.80
7234;DHT22;3658;47.992;10.158;2023-06-14T00:55:17;22.00;44.90
7234;DHT22;3658;47.992;10.158;2023-06-14T00:57:44;22.00;44.80
7234;DHT22;3658;47.992;10.158;2023-06-14T01:00:12;22.00;44.90
7234;DHT22;3658;47.992;10.158;2023-06-14T01:02:40;22.00;44.90
7234;DHT22;3658;47.992;10.158;2023-06-14T01:05:08;22.00;44.90
7234;DHT22;3658;47.992;10.158;2023-06-14T01:07:53;22.00;44.90
7234;DHT22;3658;47.992;10.158;2023-06-14T01:10:30;22.00;44.90
7234;DHT22;3658;47.992;10.158;2023-06-14T01:13:05;22.00;45.00
7234;DHT22;3658;47.992;10.158;2023-06-14T01:15:34;22.00;45.00
7234;DHT22;3658;47.992;10.158;2023-06-14T01:18:01;22.00;45.00
7234;DHT22;3658;47.992;10.158;2023-06-14T01:20:30;22.00;44.90
7234;DHT22;3658;47.992;10.158;2023-06-14T01:22:59;22.00;45.00
7234;DHT22;3658;47.992;10.158;2023-06-14T01:25:26;22.00;45.00
7234;DHT22;3658;47.992;10.158;2023-06-14T01:27:55;22.00;45.00
7234;DHT22;3658;47.992;10.158;2023-06-14T01:30:23;22.00;45.00
7234;DHT22;3658;47.992;10.158;2023-06-14T01:32:51;22.00;45.00
7234;DHT22;3658;47.992;10.158;2023-06-14T01:35:20;22.00;45.00
7234;DHT22;3658;47.992;10.158;2023-06-14T01:37:48;22.00;45.00
7234;DHT22;3658;47.992;10.158;2023-06-14T01:40:18;22.00;45.00
7234;DHT22;3658;47.992;10.158;2023-06-14T01:42:46;22.00;45.10
7234;DHT22;3658;47.992;10.158;2023-06-14T01:45:14;22.00;45.10
7234;DHT22;3658;47.992;10.158;2023-06-14T01:47:41;22.00;45.00
7234;DHT22;3658;47.992;10.158;2023-06-14T01:50:09;22.00;45.20
7234;DHT22;3658;47.992;10.158;2023-06-14T01:52:36;22.00;45.20
7234;DHT22;3658;47.992;10.158;2023-06-14T01:55:04;22.00;45.10
7234;DHT22;3658;47.992;10.158;2023-06-14T01:57:32;22.00;45.10
7234;DHT22;3658;47.992;10.158;2023-06-14T01:59:59;22.00;45.00
7234;DHT22;3658;47.992;10.158;2023-06-14T02:02:26;22.00;45.20
7234;DHT22;3658;47.992;10.158;2023-06-14T02:04:52;22.00;45.20
7234;DHT22;3658;47.992;10.158;2023-06-14T02:07:22;22.00;45.20
7234;DHT22;3658;47.992;10.158;2023-06-14T02:09:49;22.00;45.20
7234;DHT22;3658;47.992;10.158;2023-06-14T02:12:16;22.00;45.20
7234;DHT22;3658;47.992;10.158;2023-06-14T02:14:44;22.00;45.30
7234;DHT22;3658;47.992;10.158;2023-06-14T02:17:11;22.00;45.30
7234;DHT22;3658;47.992;10.158;2023-06-14T02:19:38;22.00;45.30
7234;DHT22;3658;47.992;10.158;2023-06-14T02:22:05;22.00;45.30
7234;DHT22;3658;47.992;10.158;2023-06-14T02:24:32;22.00;45.20
7234;DHT22;3658;47.992;10.158;2023-06-14T02:26:58;22.00;45.30
7234;DHT22;3658;47.992;10.158;2023-06-14T02:29:25;22.00;45.20
7234;DHT22;3658;47.992;10.158;2023-06-14T02:31:53;22.00;45.30
7234;DHT22;3658;47.992;10.158;2023-06-14T02:34:20;22.00;45.30
7234;DHT22;3658;47.992;10.158;2023-06-14T02:36:47;22.00;45.30
7234;DHT22;3658;47.992;10.158;2023-06-14T02:39:15;22.00;45.30
7234;DHT22;3658;47.992;10.158;2023-06-14T02:41:43;22.00;45.30
7234;DHT22;3658;47.992;10.158;2023-06-14T02:44:10;22.00;45.30
7234;DHT22;3658;47.992;10.158;2023-06-14T02:46:38;22.00;45.30
7234;DHT22;3658;47.992;10.158;2023-06-14T02:49:06;22.00;45.30
7234;DHT22;3658;47.992;10.158;2023-06-14T02:51:33;22.00;45.30
7234;DHT22;3658;47.992;10.158;2023-06-14T02:54:00;22.00;45.30
7234;DHT22;3658;47.992;10.158;2023-06-14T02:56:27;22.00;45.40
7234;DHT22;3658;47.992;10.158;2023-06-14T02:58:53;22.00;46.00
7234;DHT22;3658;47.992;10.158;2023-06-14T03:01:20;22.00;45.30
7234;DHT22;3658;47.992;10.158;2023-06-14T03:03:48;21.90;45.30
7234;DHT22;3658;47.992;10.158;2023-06-14T03:06:16;22.00;45.40
7234;DHT22;3658;47.992;10.158;2023-06-14T03:08:44;21.90;45.30
7234;DHT22;3658;47.992;10.158;2023-06-14T03:11:11;22.00;45.40
7234;DHT22;3658;47.992;10.158;2023-06-14T03:13:38;22.00;45.40
7234;DHT22;3658;47.992;10.158;2023-06-14T03:16:06;22.00;45.40
7234;DHT22;3658;47.992;10.158;2023-06-14T03:18:37;22.00;45.50
7234;DHT22;3658;47.992;10.158;2023-06-14T03:21:06;22.00;45.40
7234;DHT22;3658;47.992;10.158;2023-06-14T03:23:35;22.00;45.40
7234;DHT22;3658;47.992;10.158;2023-06-14T03:26:02;21.90;45.30
7234;DHT22;3658;47.992;10.158;2023-06-14T03:28:29;22.00;45.50
7234;DHT22;3658;47.992;10.158;2023-06-14T03:30:56;22.00;45.50
7234;DHT22;3658;47.992;10.158;2023-06-14T03:33:22;21.90;45.30
7234;DHT22;3658;47.992;10.158;2023-06-14T03:35:50;21.90;45.40
7234;DHT22;3658;47.992;10.158;2023-06-14T03:38:17;22.00;45.50
7234;DHT22;3658;47.992;10.158;2023-06-14T03:40:45;22.00;45.50
7234;DHT22;3658;47.992;10.158;2023-06-14T03:43:12;22.00;45.50
7234;DHT22;3658;47.992;10.158;2023-06-14T03:45:39;21.90;45.40
7234;DHT22;3658;47.992;10.158;2023-06-14T03:48:05;21.90;45.40
7234;DHT22;3658;47.992;10.158;2023-06-14T03:50:34;21.90;45.40
7234;DHT22;3658;47.992;10.158;2023-06-14T03:53:03;21.90;45.40
7234;DHT22;3658;47.992;10.158;2023-06-14T03:55:30;21.90;45.40
7234;DHT22;3658;47.992;10.158;2023-06-14T03:57:59;21.90;46.10
7234;DHT22;3658;47.992;10.158;2023-06-14T04:00:26;21.90;45.40
7234;DHT22;3658;47.992;10.158;2023-06-14T04:02:53;22.00;45.50
7234;DHT22;3658;47.992;10.158;2023-06-14T04:05:20;21.90;45.40
7234;DHT22;3658;47.992;10.158;2023-06-14T04:07:47;21.90;45.40
7234;DHT22;3658;47.992;10.158;2023-06-14T04:10:15;21.90;45.50
7234;DHT22;3658;47.992;10.158;2023-06-14T04:12:42;21.90;45.40
7234;DHT22;3658;47.992;10.158;2023-06-14T04:15:10;21.90;45.40
7234;DHT22;3658;47.992;10.158;2023-06-14T04:17:38;21.90;45.50
7234;DHT22;3658;47.992;10.158;2023-06-14T04:20:06;22.00;45.50
7234;DHT22;3658;47.992;10.158;2023-06-14T04:22:35;21.90;45.40
7234;DHT22;3658;47.992;10.158;2023-06-14T04:25:02;22.00;45.50
7234;DHT22;3658;47.992;10.158;2023-06-14T04:27:31;22.00;45.60
7234;DHT22;3658;47.992;10.158;2023-06-14T04:30:01;21.90;45.40
7234;DHT22;3658;47.992;10.158;2023-06-14T04:32:29;21.90;45.50
7234;DHT22;3658;47.992;10.158;2023-06-14T04:34:59;21.90;45.50
7234;DHT22;3658;47.992;10.158;2023-06-14T04:37:27;21.90;45.50
7234;DHT22;3658;47.992;10.158;2023-06-14T04:39:54;21.90;45.50
7234;DHT22;3658;47.992;10.158;2023-06-14T04:42:22;21.90;45.50
7234;DHT22;3658;47.992;10.158;2023-06-14T04:44:50;21.90;45.50
7234;DHT22;3658;47.992;10.158;2023-06-14T04:47:20;21.90;45.50
7234;DHT22;3658;47.992;10.158;2023-06-14T04:49:48;21.90;45.50
7234;DHT22;3658;47.992;10.158;2023-06-14T04:52:16;21.90;45.60
7234;DHT22;3658;47.992;10.158;2023-06-14T04:54:43;21.90;45.50
7234;DHT22;3658;47.992;10.158;2023-06-14T04:57:10;21.90;45.60
7234;DHT22;3658;47.992;10.158;2023-06-14T04:59:39;21.90;45.50
7234;DHT22;3658;47.992;10.158;2023-06-14T05:02:06;21.90;45.50
7234;DHT22;3658;47.992;10.158;2023-06-14T05:04:34;21.90;45.60
7234;DHT22;3658;47.992;10.158;2023-06-14T05:07:06;21.90;45.60
7234;DHT22;3658;47.992;10.158;2023-06-14T05:09:34;21.90;45.50
7234;DHT22;3658;47.992;10.158;2023-06-14T05:12:01;21.90;45.70
7234;DHT22;3658;47.992;10.158;2023-06-14T05:14:28;22.00;45.70
7234;DHT22;3658;47.992;10.158;2023-06-14T05:16:54;22.00;45.80
7234;DHT22;3658;47.992;10.158;2023-06-14T05:19:21;21.90;45.70
7234;DHT22;3658;47.992;10.158;2023-06-14T05:21:48;21.90;45.60
7234;DHT22;3658;47.992;10.158;2023-06-14T05:24:16;21.90;45.70
7234;DHT22;3658;47.992;10.158;2023-06-14T05:26:43;22.00;45.70
7234;DHT22;3658;47.992;10.158;2023-06-14T05:29:10;21.90;45.60
7234;DHT22;3658;47.992;10.158;2023-06-14T05:31:37;22.00;45.60
7234;DHT22;3658;47.992;10.158;2023-06-14T05:34:04;21.90;45.50
7234;DHT22;3658;47.992;10.158;2023-06-14T05:36:32;21.90;45.60
7234;DHT22;3658;47.992;10.158;2023-06-14T05:38:59;21.90;45.50
7234;DHT22;3658;47.992;10.158;2023-06-14T05:41:30;22.00;45.60
7234;DHT22;3658;47.992;10.158;2023-06-14T05:43:57;21.90;45.50
7234;DHT22;3658;47.992;10.158;2023-06-14T05:46:25;21.90;45.50
7234;DHT22;3658;47.992;10.158;2023-06-14T05:48:52;21.90;45.50
7234;DHT22;3658;47.992;10.158;2023-06-14T05:51:19;22.00;45.50
7234;DHT22;3658;47.992;10.158;2023-06-14T05:53:46;22.00;45.50
7234;DHT22;3658;47.992;10.158;2023-06-14T05:56:13;22.00;45.60
7234;DHT22;3658;47.992;10.158;2023-06-14T05:58:41;21.90;45.60
7234;DHT22;3658;47.992;10.158;2023-06-14T06:01:08;22.00;45.80
7234;DHT22;3658;47.992;10.158;2023-06-14T06:03:35;22.00;45.70
7234;DHT22;3658;47.992;10.158;2023-06-14T06:06:02;21.90;44.80
7234;DHT22;3658;47.992;10.158;2023-06-14T06:08:29;21.90;45.40
7234;DHT22;3658;47.992;10.158;2023-06-14T06:10:56;22.00;45.60
7234;DHT22;3658;47.992;10.158;2023-06-14T06:13:23;22.00;45.80
7234;DHT22;3658;47.992;10.158;2023-06-14T06:15:51;22.00;46.00
7234;DHT22;3658;47.992;10.158;2023-06-14T06:18:18;22.10;46.30
7234;DHT22;3658;47.992;10.158;2023-06-14T06:20:46;22.10;46.30
7234;DHT22;3658;47.992;10.158;2023-06-14T06:23:13;22.10;46.50
7234;DHT22;3658;47.992;10.158;2023-06-14T06:25:42;22.10;46.70
7234;DHT22;3658;47.992;10.158;2023-06-14T06:28:09;22.10;46.80
7234;DHT22;3658;47.992;10.158;2023-06-14T06:30:36;22.10;44.10
7234;DHT22;3658;47.992;10.158;2023-06-14T06:33:04;22.00;44.50
7234;DHT22;3658;47.992;10.158;2023-06-14T06:35:31;21.90;44.50
7234;DHT22;3658;47.992;10.158;2023-06-14T06:37:59;21.90;44.20
7234;DHT22;3658;47.992;10.158;2023-06-14T06:40:26;21.90;43.80
7234;DHT22;3658;47.992;10.158;2023-06-14T06:42:52;21.80;43.50
7234;DHT22;3658;47.992;10.158;2023-06-14T06:45:20;21.80;42.60
7234;DHT22;3658;47.992;10.158;2023-06-14T06:47:46;21.80;43.10
7234;DHT22;3658;47.992;10.158;2023-06-14T06:50:14;21.80;43.00
7234;DHT22;3658;47.992;10.158;2023-06-14T06:52:41;21.80;42.50
7234;DHT22;3658;47.992;10.158;2023-06-14T06:55:08;21.80;42.60
7234;DHT22;3658;47.992;10.158;2023-06-14T06:57:36;21.70;42.80
7234;DHT22;3658;47.992;10.158;2023-06-14T07:00:04;21.80;42.70
7234;DHT22;3658;47.992;10.158;2023-06-14T07:02:33;21.70;42.30
7234;DHT22;3658;47.992;10.158;2023-06-14T07:05:00;21.80;41.90
7234;DHT22;3658;47.992;10.158;2023-06-14T07:07:28;21.80;42.70
7234;DHT22;3658;47.992;10.158;2023-06-14T07:09:54;21.90;43.20
7234;DHT22;3658;47.992;10.158;2023-06-14T07:12:22;21.90;43.00
7234;DHT22;3658;47.992;10.158;2023-06-14T07:14:49;22.00;43.10
7234;DHT22;3658;47.992;10.158;2023-06-14T07:17:16;22.00;43.30
7234;DHT22;3658;47.992;10.158;2023-06-14T07:19:43;22.10;43.60
7234;DHT22;3658;47.992;10.158;2023-06-14T07:22:09;22.20;44.00
7234;DHT22;3658;47.992;10.158;2023-06-14T07:24:38;22.10;43.60
7234;DHT22;3658;47.992;10.158;2023-06-14T07:27:06;22.00;43.00
7234;DHT22;3658;47.992;10.158;2023-06-14T07:29:33;21.90;42.60
7234;DHT22;3658;47.992;10.158;2023-06-14T07:31:59;21.90;42.40
7234;DHT22;3658;47.992;10.158;2023-06-14T07:34:26;21.90;40.60
7234;DHT22;3658;47.992;10.158;2023-06-14T07:36:53;21.90;40.50
7234;DHT22;3658;47.992;10.158;2023-06-14T07:39:21;22.00;40.90
7234;DHT22;3658;47.992;10.158;2023-06-14T07:41:49;22.00;41.30
7234;DHT22;3658;47.992;10.158;2023-06-14T07:44:16;22.10;41.70
7234;DHT22;3658;47.992;10.158;2023-06-14T07:46:42;22.20;42.10
7234;DHT22;3658;47.992;10.158;2023-06-14T07:49:11;22.20;42.40
7234;DHT22;3658;47.992;10.158;2023-06-14T07:51:38;22.20;42.80
7234;DHT22;3658;47.992;10.158;2023-06-14T07:54:05;22.30;43.20
7234;DHT22;3658;47.992;10.158;2023-06-14T07:56:34;22.30;43.60
7234;DHT22;3658;47.992;10.158;2023-06-14T07:59:02;22.30;43.70
7234;DHT22;3658;47.992;10.158;2023-06-14T08:01:29;22.20;43.20
7234;DHT22;3658;47.992;10.158;2023-06-14T08:03:56;22.10;40.80
7234;DHT22;3658;47.992;10.158;2023-06-14T08:06:22;22.10;41.10
7234;DHT22;3658;47.992;10.158;2023-06-14T08:08:49;22.10;41.50
7234;DHT22;3658;47.992;10.158;2023-06-14T08:11:16;22.20;42.10
7234;DHT22;3658;47.992;10.158;2023-06-14T08:13:43;22.30;42.60
7234;DHT22;3658;47.992;10.158;2023-06-14T08:16:11;22.30;42.90
7234;DHT22;3658;47.992;10.158;2023-06-14T08:18:37;22.30;43.20
7234;DHT22;3658;47.992;10.158;2023-06-14T08:21:04;22.30;43.30
7234;DHT22;3658;47.992;10.158;2023-06-14T08:23:32;22.40;43.60
7234;DHT22;3658;47.992;10.158;2023-06-14T08:25:59;22.40;43.90
7234;DHT22;3658;47.992;10.158;2023-06-14T08:28:27;22.40;44.10
7234;DHT22;3658;47.992;10.158;2023-06-14T08:30:53;22.40;44.20
7234;DHT22;3658;47.992;10.158;2023-06-14T08:33:22;22.40;44.30
7234;DHT22;3658;47.992;10.158;2023-06-14T08:35:49;22.50;44.70
7234;DHT22;3658;47.992;10.158;2023-06-14T08:38:16;22.50;44.90
7234;DHT22;3658;47.992;10.158;2023-06-14T08:40:44;22.50;45.10
7234;DHT22;3658;47.992;10.158;2023-06-14T08:43:11;22.50;45.40
7234;DHT22;3658;47.992;10.158;2023-06-14T08:45:38;22.50;45.90
7234;DHT22;3658;47.992;10.158;2023-06-14T08:48:06;22.50;46.00
7234;DHT22;3658;47.992;10.158;2023-06-14T08:50:36;22.50;46.30
7234;DHT22;3658;47.992;10.158;2023-06-14T08:53:08;22.50;46.50
7234;DHT22;3658;47.992;10.158;2023-06-14T08:55:38;22.50;46.60
7234;DHT22;3658;47.992;10.158;2023-06-14T08:58:05;22.50;46.60
7234;DHT22;3658;47.992;10.158;2023-06-14T09:00:34;22.60;46.80
7234;DHT22;3658;47.992;10.158;2023-06-14T09:03:04;22.50;46.10
7234;DHT22;3658;47.992;10.158;2023-06-14T09:05:39;22.40;42.50
7234;DHT22;3658;47.992;10.158;2023-06-14T09:08:06;22.30;41.20
7234;DHT22;3658;47.992;10.158;2023-06-14T09:10:33;22.30;40.90
7234;DHT22;3658;47.992;10.158;2023-06-14T09:13:02;22.20;40.70
7234;DHT22;3658;47.992;10.158;2023-06-14T09:15:30;22.20;41.00
7234;DHT22;3658;47.992;10.158;2023-06-14T09:17:57;22.20;40.30
7234;DHT22;3658;47.992;10.158;2023-06-14T09:20:24;22.20;40.30
7234;DHT22;3658;47.992;10.158;2023-06-14T09:22:53;22.20;40.30
7234;DHT22;3658;47.992;10.158;2023-06-14T09:25:20;22.20;40.30
7234;DHT22;3658;47.992;10.158;2023-06-14T09:27:48;22.20;40.40
7234;DHT22;3658;47.992;10.158;2023-06-14T09:30:15;22.20;40.50
7234;DHT22;3658;47.992;10.158;2023-06-14T09:32:42;22.20;40.50
7234;DHT22;3658;47.992;10.158;2023-06-14T09:35:09;22.20;40.50
7234;DHT22;3658;47.992;10.158;2023-06-14T09:37:36;22.20;40.50
7234;DHT22;3658;47.992;10.158;2023-06-14T09:40:06;22.20;40.50
7234;DHT22;3658;47.992;10.158;2023-06-14T09:42:34;22.20;40.60
7234;DHT22;3658;47.992;10.158;2023-06-14T09:45:02;22.20;40.60
7234;DHT22;3658;47.992;10.158;2023-06-14T09:47:29;22.20;40.80
7234;DHT22;3658;47.992;10.158;2023-06-14T09:49:56;22.20;40.90
7234;DHT22;3658;47.992;10.158;2023-06-14T09:52:23;22.20;40.80
7234;DHT22;3658;47.992;10.158;2023-06-14T09:54:52;22.20;40.80
7234;DHT22;3658;47.992;10.158;2023-06-14T09:57:23;22.20;40.80
7234;DHT22;3658;47.992;10.158;2023-06-14T09:59:53;22.20;40.80
7234;DHT22;3658;47.992;10.158;2023-06-14T10:02:26;22.20;40.80
7234;DHT22;3658;47.992;10.158;2023-06-14T10:05:00;22.20;40.90
7234;DHT22;3658;47.992;10.158;2023-06-14T10:07:35;22.20;40.90
7234;DHT22;3658;47.992;10.158;2023-06-14T10:10:06;22.30;41.00
7234;DHT22;3658;47.992;10.158;2023-06-14T10:12:35;22.20;41.10
7234;DHT22;3658;47.992;10.158;2023-06-14T10:15:02;22.30;41.40
7234;DHT22;3658;47.992;10.158;2023-06-14T10:17:35;22.30;41.40
7234;DHT22;3658;47.992;10.158;2023-06-14T10:20:14;22.20;41.30
7234;DHT22;3658;47.992;10.158;2023-06-14T10:22:48;22.20;41.40
7234;DHT22;3658;47.992;10.158;2023-06-14T10:25:26;22.20;41.40
7234;DHT22;3658;47.992;10.158;2023-06-14T10:28:08;22.20;41.50
7234;DHT22;3658;47.992;10.158;2023-06-14T10:31:07;22.20;41.40
7234;DHT22;3658;47.992;10.158;2023-06-14T10:33:35;22.20;41.50
7234;DHT22;3658;47.992;10.158;2023-06-14T10:36:10;22.20;41.40
7234;DHT22;3658;47.992;10.158;2023-06-14T10:38:37;22.20;41.40
7234;DHT22;3658;47.992;10.158;2023-06-14T10:41:04;22.20;41.50
7234;DHT22;3658;47.992;10.158;2023-06-14T10:43:33;22.20;41.70
7234;DHT22;3658;47.992;10.158;2023-06-14T10:46:16;22.20;41.90
7234;DHT22;3658;47.992;10.158;2023-06-14T10:48:44;22.20;42.00
7234;DHT22;3658;47.992;10.158;2023-06-14T10:51:16;22.20;42.00
7234;DHT22;3658;47.992;10.158;2023-06-14T10:53:47;22.20;42.10
7234;DHT22;3658;47.992;10.158;2023-06-14T10:56:27;22.20;42.10
7234;DHT22;3658;47.992;10.158;2023-06-14T10:58:57;22.20;42.00
7234;DHT22;3658;47.992;10.158;2023-06-14T11:01:34;22.20;42.00
7234;DHT22;3658;47.992;10.158;2023-06-14T11:04:11;22.20;41.80
7234;DHT22;3658;47.992;10.158;2023-06-14T11:06:48;22.20;41.90
7234;DHT22;3658;47.992;10.158;2023-06-14T11:12:17;22.20;41.80
7234;DHT22;3658;47.992;10.158;2023-06-14T11:14:48;22.20;41.80
7234;DHT22;3658;47.992;10.158;2023-06-14T11:17:15;22.20;41.70
7234;DHT22;3658;47.992;10.158;2023-06-14T11:19:41;22.20;41.80
7234;DHT22;3658;47.992;10.158;2023-06-14T11:22:08;22.20;41.90
7234;DHT22;3658;47.992;10.158;2023-06-14T11:24:35;22.20;42.00
7234;DHT22;3658;47.992;10.158;2023-06-14T11:27:03;22.20;41.90
7234;DHT22;3658;47.992;10.158;2023-06-14T11:29:29;22.20;41.80
7234;DHT22;3658;47.992;10.158;2023-06-14T11:31:58;22.20;42.10
7234;DHT22;3658;47.992;10.158;2023-06-14T11:34:25;22.20;42.80
7234;DHT22;3658;47.992;10.158;2023-06-14T11:36:52;22.30;43.20
7234;DHT22;3658;47.992;10.158;2023-06-14T11:39:24;22.30;43.30
7234;DHT22;3658;47.992;10.158;2023-06-14T11:41:52;22.30;43.40
7234;DHT22;3658;47.992;10.158;2023-06-14T11:44:20;22.30;43.50
7234;DHT22;3658;47.992;10.158;2023-06-14T11:46:47;22.30;43.60
7234;DHT22;3658;47.992;10.158;2023-06-14T11:49:17;22.30;43.70
7234;DHT22;3658;47.992;10.158;2023-06-14T11:51:44;22.30;43.90
7234;DHT22;3658;47.992;10.158;2023-06-14T11:54:13;22.30;44.00
7234;DHT22;3658;47.992;10.158;2023-06-14T11:56:40;22.30;44.10
7234;DHT22;3658;47.992;10.158;2023-06-14T11:59:06;22.30;44.10
7234;DHT22;3658;47.992;10.158;2023-06-14T12:01:36;22.30;44.20
7234;DHT22;3658;47.992;10.158;2023-06-14T12:04:04;22.30;44.20
7234;DHT22;3658;47.992;10.158;2023-06-14T12:06:32;22.20;44.30
7234;DHT22;3658;47.992;10.158;2023-06-14T12:09:05;22.30;44.60
7234;DHT22;3658;47.992;10.158;2023-06-14T12:11:37;22.20;44.60
7234;DHT22;3658;47.992;10.158;2023-06-14T12:14:05;22.30;45.00
7234;DHT22;3658;47.992;10.158;2023-06-14T12:16:32;22.30;45.30
7234;DHT22;3658;47.992;10.158;2023-06-14T12:19:08;22.30;45.40
7234;DHT22;3658;47.992;10.158;2023-06-14T12:21:38;22.30;45.40
7234;DHT22;3658;47.992;10.158;2023-06-14T12:24:06;22.30;45.40
7234;DHT22;3658;47.992;10.158;2023-06-14T12:26:33;22.30;45.50
7234;DHT22;3658;47.992;10.158;2023-06-14T12:29:01;22.30;46.00
7234;DHT22;3658;47.992;10.158;2023-06-14T12:31:28;22.30;46.00
7234;DHT22;3658;47.992;10.158;2023-06-14T12:33:55;22.30;45.90
7234;DHT22;3658;47.992;10.158;2023-06-14T12:36:21;22.30;46.00
7234;DHT22;3658;47.992;10.158;2023-06-14T12:38:50;22.30;46.10
7234;DHT22;3658;47.992;10.158;2023-06-14T12:41:18;22.30;46.00
7234;DHT22;3658;47.992;10.158;2023-06-14T12:43:46;22.30;46.10
7234;DHT22;3658;47.992;10.158;2023-06-14T12:46:13;22.30;46.00
7234;DHT22;3658;47.992;10.158;2023-06-14T12:48:40;22.30;45.90
7234;DHT22;3658;47.992;10.158;2023-06-14T12:51:07;22.30;45.90
7234;DHT22;3658;47.992;10.158;2023-06-14T12:53:33;22.30;46.20
7234;DHT22;3658;47.992;10.158;2023-06-14T12:56:01;22.30;46.10
7234;DHT22;3658;47.992;10.158;2023-06-14T12:58:28;22.30;46.00
7234;DHT22;3658;47.992;10.158;2023-06-14T13:00:55;22.20;45.40
7234;DHT22;3658;47.992;10.158;2023-06-14T13:03:21;22.20;44.70
7234;DHT22;3658;47.992;10.158;2023-06-14T13:05:49;22.20;44.50
7234;DHT22;3658;47.992;10.158;2023-06-14T13:08:15;22.20;44.50
7234;DHT22;3658;47.992;10.158;2023-06-14T13:10:42;22.30;44.20
7234;DHT22;3658;47.992;10.158;2023-06-14T13:13:10;22.30;43.50
7234;DHT22;3658;47.992;10.158;2023-06-14T13:15:38;22.30;43.00
7234;DHT22;3658;47.992;10.158;2023-06-14T13:18:05;22.30;43.20
7234;DHT22;3658;47.992;10.158;2023-06-14T13:20:32;22.30;43.20
7234;DHT22;3658;47.992;10.158;2023-06-14T13:22:59;22.30;43.10
7234;DHT22;3658;47.992;10.158;2023-06-14T13:25:27;22.30;43.30
7234;DHT22;3658;47.992;10.158;2023-06-14T13:27:54;22.20;42.70
7234;DHT22;3658;47.992;10.158;2023-06-14T13:30:22;22.30;42.40
7234;DHT22;3658;47.992;10.158;2023-06-14T13:32:49;22.30;41.90
7234;DHT22;3658;47.992;10.158;2023-06-14T13:35:17;22.20;42.20
7234;DHT22;3658;47.992;10.158;2023-06-14T13:37:44;22.30;42.60
7234;DHT22;3658;47.992;10.158;2023-06-14T13:40:12;22.30;42.20
7234;DHT22;3658;47.992;10.158;2023-06-14T13:42:38;22.30;42.10
7234;DHT22;3658;47.992;10.158;2023-06-14T13:45:07;22.30;42.20
7234;DHT22;3658;47.992;10.158;2023-06-14T13:47:35;22.20;42.30
7234;DHT22;3658;47.992;10.158;2023-06-14T13:50:02;22.30;42.50
7234;DHT22;3658;47.992;10.158;2023-06-14T13:52:29;22.20;42.50
7234;DHT22;3658;47.992;10.158;2023-06-14T13:54:55;22.20;42.60
7234;DHT22;3658;47.992;10.158;2023-06-14T13:57:22;22.20;42.40
7234;DHT22;3658;47.992;10.158;2023-06-14T13:59:49;22.20;42.10
7234;DHT22;3658;47.992;10.158;2023-06-14T14:02:16;22.20;42.40
7234;DHT22;3658;47.992;10.158;2023-06-14T14:04:45;22.20;42.40
7234;DHT22;3658;47.992;10.158;2023-06-14T14:07:16;22.20;42.20
7234;DHT22;3658;47.992;10.158;2023-06-14T14:09:44;22.20;42.00
7234;DHT22;3658;47.992;10.158;2023-06-14T14:12:11;22.20;42.10
7234;DHT22;3658;47.992;10.158;2023-06-14T14:14:38;22.20;42.20
7234;DHT22;3658;47.992;10.158;2023-06-14T14:17:05;22.20;42.30
7234;DHT22;3658;47.992;10.158;2023-06-14T14:19:32;22.20;42.50
7234;DHT22;3658;47.992;10.158;2023-06-14T14:22:01;22.20;42.30
7234;DHT22;3658;47.992;10.158;2023-06-14T14:24:28;22.20;42.30
7234;DHT22;3658;47.992;10.158;2023-06-14T14:26:55;22.20;41.90
7234;DHT22;3658;47.992;10.158;2023-06-14T14:29:25;22.20;41.50
7234;DHT22;3658;47.992;10.158;2023-06-14T14:31:54;22.20;41.50
7234;DHT22;3658;47.992;10.158;2023-06-14T14:34:21;22.20;41.80
7234;DHT22;3658;47.992;10.158;2023-06-14T14:36:48;22.20;41.80
7234;DHT22;3658;47.992;10.158;2023-06-14T14:39:16;22.20;41.90
7234;DHT22;3658;47.992;10.158;2023-06-14T14:41:43;22.20;41.90
7234;DHT22;3658;47.992;10.158;2023-06-14T14:44:10;22.20;41.60
7234;DHT22;3658;47.992;10.158;2023-06-14T14:46:36;22.20;41.30
7234;DHT22;3658;47.992;10.158;2023-06-14T14:49:04;22.20;41.40
7234;DHT22;3658;47.992;10.158;2023-06-14T14:51:31;22.20;41.50
7234;DHT22;3658;47.992;10.158;2023-06-14T14:53:57;22.20;41.50
7234;DHT22;3658;47.992;10.158;2023-06-14T14:56:28;22.10;41.00
7234;DHT22;3658;47.992;10.158;2023-06-14T14:58:57;22.20;41.50
7234;DHT22;3658;47.992;10.158;2023-06-14T15:01:24;22.20;41.60
7234;DHT22;3658;47.992;10.158;2023-06-14T15:03:50;22.20;41.60
7234;DHT22;3658;47.992;10.158;2023-06-14T15:06:17;22.20;41.70
7234;DHT22;3658;47.992;10.158;2023-06-14T15:08:44;22.20;41.90
7234;DHT22;3658;47.992;10.158;2023-06-14T15:11:11;22.20;42.20
7234;DHT22;3658;47.992;10.158;2023-06-14T15:13:39;22.20;42.30
7234;DHT22;3658;47.992;10.158;2023-06-14T15:16:06;22.20;42.40
7234;DHT22;3658;47.992;10.158;2023-06-14T15:18:35;22.20;42.50
7234;DHT22;3658;47.992;10.158;2023-06-14T15:21:02;22.20;43.20
7234;DHT22;3658;47.992;10.158;2023-06-14T15:23:29;22.20;42.70
7234;DHT22;3658;47.992;10.158;2023-06-14T15:25:56;22.20;42.70
7234;DHT22;3658;47.992;10.158;2023-06-14T15:28:23;22.20;42.80
7234;DHT22;3658;47.992;10.158;2023-06-14T15:30:55;22.20;42.90
7234;DHT22;3658;47.992;10.158;2023-06-14T15:33:22;22.20;43.20
7234;DHT22;3658;47.992;10.158;2023-06-14T15:35:48;22.20;43.20
7234;DHT22;3658;47.992;10.158;2023-06-14T15:38:19;22.20;43.20
7234;DHT22;3658;47.992;10.158;2023-06-14T15:40:47;22.20;43.20
7234;DHT22;3658;47.992;10.158;2023-06-14T15:43:14;22.20;43.70
7234;DHT22;3658;47.992;10.158;2023-06-14T15:45:42;22.20;43.80
7234;DHT22;3658;47.992;10.158;2023-06-14T15:48:10;22.20;43.90
7234;DHT22;3658;47.992;10.158;2023-06-14T15:50:38;22.20;43.80
7234;DHT22;3658;47.992;10.158;2023-06-14T15:53:07;22.20;43.70